Peru, Iowa
Current Conditions -  °F | °C
As of 9:55 AM on Saturday 20 Dec 2014 (Local Time) from KI75 Reporting Station
Haze Haze  
Wind Chill: 33°   Ceiling: 300
Heat Index: 33°   Visibility: 2.5mi
Dew Point: 32°   Wind: 0mph
Humidity: 96%   Direction: NA
Pressure: 30.16"   Gusts: NA
Location:  41.24°N, 93.94°W
Report Text: KI75 201555Z AUTO 00000KT 2 1/2SM BR OVC003 01/00 A3016 RMK AO2 T00050000
Loading
Personal Weather Stations






























Interactive Weather Map New forecast layout! Learn more

10-Day Weather Forecast

Advertisements
Track Severe Weather on mobile